sensor_id;sensor_type;location;lat;lon;timestamp;P1;durP1;ratioP1;P2;durP2;ratioP2
4726;SDS011;2377;51.734;8.950;2023-03-31T00:02:12;6.37;;;1.80;;
4726;SDS011;2377;51.734;8.950;2023-03-31T00:04:39;3.97;;;1.83;;
4726;SDS011;2377;51.734;8.950;2023-03-31T00:07:10;6.73;;;1.93;;
4726;SDS011;2377;51.734;8.950;2023-03-31T00:09:38;5.60;;;1.63;;
4726;SDS011;2377;51.734;8.950;2023-03-31T00:12:06;4.73;;;1.70;;
4726;SDS011;2377;51.734;8.950;2023-03-31T00:14:34;6.83;;;2.20;;
4726;SDS011;2377;51.734;8.950;2023-03-31T00:17:01;6.20;;;2.10;;
4726;SDS011;2377;51.734;8.950;2023-03-31T00:19:28;8.27;;;2.47;;
4726;SDS011;2377;51.734;8.950;2023-03-31T00:21:57;5.90;;;2.00;;
4726;SDS011;2377;51.734;8.950;2023-03-31T00:24:26;5.77;;;2.03;;
4726;SDS011;2377;51.734;8.950;2023-03-31T00:26:56;8.00;;;1.97;;
4726;SDS011;2377;51.734;8.950;2023-03-31T00:29:24;5.60;;;1.90;;
4726;SDS011;2377;51.734;8.950;2023-03-31T00:31:52;7.37;;;1.80;;
4726;SDS011;2377;51.734;8.950;2023-03-31T00:34:20;7.33;;;1.93;;
4726;SDS011;2377;51.734;8.950;2023-03-31T00:36:47;9.27;;;1.67;;
4726;SDS011;2377;51.734;8.950;2023-03-31T00:39:15;4.30;;;1.80;;
4726;SDS011;2377;51.734;8.950;2023-03-31T00:41:44;3.47;;;1.77;;
4726;SDS011;2377;51.734;8.950;2023-03-31T00:44:12;5.43;;;1.87;;
4726;SDS011;2377;51.734;8.950;2023-03-31T00:46:48;8.17;;;1.97;;
4726;SDS011;2377;51.734;8.950;2023-03-31T00:49:22;10.97;;;2.40;;
4726;SDS011;2377;51.734;8.950;2023-03-31T00:51:56;5.33;;;1.93;;
4726;SDS011;2377;51.734;8.950;2023-03-31T00:54:30;6.03;;;2.10;;
4726;SDS011;2377;51.734;8.950;2023-03-31T00:56:59;5.20;;;1.60;;
4726;SDS011;2377;51.734;8.950;2023-03-31T00:59:31;6.67;;;2.17;;
4726;SDS011;2377;51.734;8.950;2023-03-31T01:02:05;6.00;;;2.50;;
4726;SDS011;2377;51.734;8.950;2023-03-31T01:04:33;5.37;;;1.70;;
4726;SDS011;2377;51.734;8.950;2023-03-31T01:07:09;7.10;;;2.13;;
4726;SDS011;2377;51.734;8.950;2023-03-31T01:09:43;12.63;;;2.50;;
4726;SDS011;2377;51.734;8.950;2023-03-31T01:12:12;4.97;;;1.87;;
4726;SDS011;2377;51.734;8.950;2023-03-31T01:14:43;6.53;;;1.87;;
4726;SDS011;2377;51.734;8.950;2023-03-31T01:17:11;4.73;;;2.00;;
4726;SDS011;2377;51.734;8.950;2023-03-31T01:19:47;6.63;;;2.23;;
4726;SDS011;2377;51.734;8.950;2023-03-31T01:29:24;6.30;;;1.77;;
4726;SDS011;2377;51.734;8.950;2023-03-31T01:32:28;5.90;;;1.90;;
4726;SDS011;2377;51.734;8.950;2023-03-31T01:35:39;5.37;;;1.87;;
4726;SDS011;2377;51.734;8.950;2023-03-31T01:38:54;6.90;;;2.23;;
4726;SDS011;2377;51.734;8.950;2023-03-31T01:42:15;6.13;;;2.00;;
4726;SDS011;2377;51.734;8.950;2023-03-31T01:44:51;4.63;;;1.80;;
4726;SDS011;2377;51.734;8.950;2023-03-31T01:47:28;5.40;;;2.13;;
4726;SDS011;2377;51.734;8.950;2023-03-31T01:50:05;7.47;;;2.10;;
4726;SDS011;2377;51.734;8.950;2023-03-31T01:52:45;7.50;;;2.37;;
4726;SDS011;2377;51.734;8.950;2023-03-31T01:55:21;5.50;;;2.37;;
4726;SDS011;2377;51.734;8.950;2023-03-31T01:57:56;6.80;;;2.00;;
4726;SDS011;2377;51.734;8.950;2023-03-31T02:00:32;9.60;;;2.00;;
4726;SDS011;2377;51.734;8.950;2023-03-31T02:03:07;5.57;;;2.00;;
4726;SDS011;2377;51.734;8.950;2023-03-31T02:05:42;9.20;;;2.00;;
4726;SDS011;2377;51.734;8.950;2023-03-31T02:08:14;6.03;;;2.00;;
4726;SDS011;2377;51.734;8.950;2023-03-31T02:10:49;6.50;;;2.00;;
4726;SDS011;2377;51.734;8.950;2023-03-31T02:13:19;10.37;;;1.87;;
4726;SDS011;2377;51.734;8.950;2023-03-31T02:15:51;8.50;;;2.13;;
4726;SDS011;2377;51.734;8.950;2023-03-31T02:18:24;10.53;;;2.20;;
4726;SDS011;2377;51.734;8.950;2023-03-31T02:20:57;8.23;;;1.90;;
4726;SDS011;2377;51.734;8.950;2023-03-31T02:23:27;6.80;;;1.77;;
4726;SDS011;2377;51.734;8.950;2023-03-31T02:26:00;5.27;;;1.73;;
4726;SDS011;2377;51.734;8.950;2023-03-31T02:28:33;11.40;;;2.40;;
4726;SDS011;2377;51.734;8.950;2023-03-31T02:31:04;6.17;;;1.60;;
4726;SDS011;2377;51.734;8.950;2023-03-31T02:33:46;11.73;;;2.33;;
4726;SDS011;2377;51.734;8.950;2023-03-31T02:36:14;6.90;;;1.73;;
4726;SDS011;2377;51.734;8.950;2023-03-31T02:38:42;5.30;;;1.57;;
4726;SDS011;2377;51.734;8.950;2023-03-31T02:41:15;5.83;;;1.70;;
4726;SDS011;2377;51.734;8.950;2023-03-31T02:43:42;5.00;;;1.57;;
4726;SDS011;2377;51.734;8.950;2023-03-31T02:46:09;5.97;;;1.80;;
4726;SDS011;2377;51.734;8.950;2023-03-31T02:48:37;5.87;;;2.30;;
4726;SDS011;2377;51.734;8.950;2023-03-31T02:51:29;7.80;;;1.73;;
4726;SDS011;2377;51.734;8.950;2023-03-31T02:54:37;7.53;;;1.90;;
4726;SDS011;2377;51.734;8.950;2023-03-31T02:57:38;8.90;;;1.93;;
4726;SDS011;2377;51.734;8.950;2023-03-31T03:00:27;7.00;;;1.87;;
4726;SDS011;2377;51.734;8.950;2023-03-31T03:03:17;5.40;;;1.80;;
4726;SDS011;2377;51.734;8.950;2023-03-31T03:05:58;6.30;;;1.83;;
4726;SDS011;2377;51.734;8.950;2023-03-31T03:08:43;10.33;;;2.13;;
4726;SDS011;2377;51.734;8.950;2023-03-31T03:11:44;5.97;;;1.67;;
4726;SDS011;2377;51.734;8.950;2023-03-31T03:14:25;8.27;;;1.90;;
4726;SDS011;2377;51.734;8.950;2023-03-31T03:17:00;7.43;;;1.93;;
4726;SDS011;2377;51.734;8.950;2023-03-31T03:19:32;4.97;;;1.70;;
4726;SDS011;2377;51.734;8.950;2023-03-31T03:21:59;11.70;;;1.80;;
4726;SDS011;2377;51.734;8.950;2023-03-31T03:24:26;6.40;;;1.77;;
4726;SDS011;2377;51.734;8.950;2023-03-31T03:26:53;5.63;;;1.60;;
4726;SDS011;2377;51.734;8.950;2023-03-31T03:29:21;5.13;;;1.80;;
4726;SDS011;2377;51.734;8.950;2023-03-31T03:31:51;5.83;;;1.60;;
4726;SDS011;2377;51.734;8.950;2023-03-31T03:34:18;4.60;;;1.40;;
4726;SDS011;2377;51.734;8.950;2023-03-31T03:36:45;4.73;;;1.70;;
4726;SDS011;2377;51.734;8.950;2023-03-31T03:39:12;8.87;;;1.67;;
4726;SDS011;2377;51.734;8.950;2023-03-31T03:41:39;7.67;;;1.90;;
4726;SDS011;2377;51.734;8.950;2023-03-31T03:44:06;5.73;;;1.87;;
4726;SDS011;2377;51.734;8.950;2023-03-31T03:46:34;7.20;;;1.67;;
4726;SDS011;2377;51.734;8.950;2023-03-31T03:49:01;5.67;;;1.50;;
4726;SDS011;2377;51.734;8.950;2023-03-31T03:51:28;5.90;;;1.60;;
4726;SDS011;2377;51.734;8.950;2023-03-31T03:53:55;5.70;;;1.50;;
4726;SDS011;2377;51.734;8.950;2023-03-31T03:56:22;4.60;;;1.50;;
4726;SDS011;2377;51.734;8.950;2023-03-31T03:58:50;6.07;;;1.50;;
4726;SDS011;2377;51.734;8.950;2023-03-31T04:01:17;4.87;;;1.40;;
4726;SDS011;2377;51.734;8.950;2023-03-31T04:03:46;3.00;;;1.23;;
4726;SDS011;2377;51.734;8.950;2023-03-31T04:06:13;2.97;;;1.47;;
4726;SDS011;2377;51.734;8.950;2023-03-31T04:08:40;4.80;;;1.53;;
4726;SDS011;2377;51.734;8.950;2023-03-31T04:11:09;5.87;;;1.40;;
4726;SDS011;2377;51.734;8.950;2023-03-31T04:13:39;3.97;;;1.63;;
4726;SDS011;2377;51.734;8.950;2023-03-31T04:16:06;5.03;;;1.30;;
4726;SDS011;2377;51.734;8.950;2023-03-31T04:18:33;3.67;;;1.37;;
4726;SDS011;2377;51.734;8.950;2023-03-31T04:21:08;3.93;;;1.43;;
4726;SDS011;2377;51.734;8.950;2023-03-31T04:23:39;4.37;;;1.40;;
4726;SDS011;2377;51.734;8.950;2023-03-31T04:26:10;3.80;;;1.17;;
4726;SDS011;2377;51.734;8.950;2023-03-31T04:28:38;6.53;;;1.80;;
4726;SDS011;2377;51.734;8.950;2023-03-31T04:31:08;8.30;;;1.70;;
4726;SDS011;2377;51.734;8.950;2023-03-31T04:33:39;2.20;;;1.20;;
4726;SDS011;2377;51.734;8.950;2023-03-31T04:36:11;3.73;;;1.60;;
4726;SDS011;2377;51.734;8.950;2023-03-31T04:38:42;5.13;;;1.70;;
4726;SDS011;2377;51.734;8.950;2023-03-31T04:41:11;8.20;;;1.93;;
4726;SDS011;2377;51.734;8.950;2023-03-31T04:43:38;6.17;;;1.60;;
4726;SDS011;2377;51.734;8.950;2023-03-31T04:46:06;7.13;;;1.40;;
4726;SDS011;2377;51.734;8.950;2023-03-31T04:48:33;4.93;;;1.80;;
4726;SDS011;2377;51.734;8.950;2023-03-31T04:51:00;8.70;;;1.60;;
4726;SDS011;2377;51.734;8.950;2023-03-31T04:53:28;5.03;;;2.13;;
4726;SDS011;2377;51.734;8.950;2023-03-31T04:55:55;6.17;;;2.07;;
4726;SDS011;2377;51.734;8.950;2023-03-31T04:58:23;11.87;;;2.30;;
4726;SDS011;2377;51.734;8.950;2023-03-31T05:00:50;7.00;;;1.73;;
4726;SDS011;2377;51.734;8.950;2023-03-31T05:03:17;7.07;;;1.57;;
4726;SDS011;2377;51.734;8.950;2023-03-31T05:05:45;5.83;;;1.70;;
4726;SDS011;2377;51.734;8.950;2023-03-31T05:08:12;4.37;;;1.87;;
4726;SDS011;2377;51.734;8.950;2023-03-31T05:10:40;3.33;;;1.70;;
4726;SDS011;2377;51.734;8.950;2023-03-31T05:13:08;4.00;;;1.40;;
4726;SDS011;2377;51.734;8.950;2023-03-31T05:15:36;4.33;;;1.70;;
4726;SDS011;2377;51.734;8.950;2023-03-31T05:18:03;5.97;;;1.80;;
4726;SDS011;2377;51.734;8.950;2023-03-31T05:20:30;3.43;;;1.50;;
4726;SDS011;2377;51.734;8.950;2023-03-31T05:22:57;4.60;;;1.70;;
4726;SDS011;2377;51.734;8.950;2023-03-31T05:25:25;4.20;;;1.90;;
4726;SDS011;2377;51.734;8.950;2023-03-31T05:27:58;7.03;;;2.37;;
4726;SDS011;2377;51.734;8.950;2023-03-31T05:30:26;5.17;;;1.80;;
4726;SDS011;2377;51.734;8.950;2023-03-31T05:32:54;5.00;;;1.93;;
4726;SDS011;2377;51.734;8.950;2023-03-31T05:35:21;3.47;;;1.43;;
4726;SDS011;2377;51.734;8.950;2023-03-31T05:37:48;6.13;;;2.27;;
4726;SDS011;2377;51.734;8.950;2023-03-31T05:40:15;5.03;;;1.83;;
4726;SDS011;2377;51.734;8.950;2023-03-31T05:42:42;7.40;;;2.03;;
4726;SDS011;2377;51.734;8.950;2023-03-31T05:45:11;4.30;;;1.43;;
4726;SDS011;2377;51.734;8.950;2023-03-31T05:47:38;4.17;;;1.50;;
4726;SDS011;2377;51.734;8.950;2023-03-31T05:50:05;8.77;;;2.53;;
4726;SDS011;2377;51.734;8.950;2023-03-31T05:52:33;7.93;;;1.80;;
4726;SDS011;2377;51.734;8.950;2023-03-31T05:55:00;7.30;;;2.20;;
4726;SDS011;2377;51.734;8.950;2023-03-31T05:57:27;6.07;;;2.10;;
4726;SDS011;2377;51.734;8.950;2023-03-31T05:59:54;3.63;;;1.90;;
4726;SDS011;2377;51.734;8.950;2023-03-31T06:02:22;7.13;;;2.17;;
4726;SDS011;2377;51.734;8.950;2023-03-31T06:04:49;7.20;;;2.00;;
4726;SDS011;2377;51.734;8.950;2023-03-31T06:07:17;7.27;;;1.90;;
4726;SDS011;2377;51.734;8.950;2023-03-31T06:09:44;3.73;;;2.10;;
4726;SDS011;2377;51.734;8.950;2023-03-31T06:12:11;8.10;;;2.80;;
4726;SDS011;2377;51.734;8.950;2023-03-31T06:14:39;5.73;;;1.83;;
4726;SDS011;2377;51.734;8.950;2023-03-31T06:17:06;7.03;;;2.30;;
4726;SDS011;2377;51.734;8.950;2023-03-31T06:19:35;4.73;;;2.40;;
4726;SDS011;2377;51.734;8.950;2023-03-31T06:22:02;3.70;;;1.93;;
4726;SDS011;2377;51.734;8.950;2023-03-31T06:24:29;5.40;;;2.20;;
4726;SDS011;2377;51.734;8.950;2023-03-31T06:26:56;4.50;;;1.90;;
4726;SDS011;2377;51.734;8.950;2023-03-31T06:29:24;8.30;;;2.63;;
4726;SDS011;2377;51.734;8.950;2023-03-31T06:31:52;8.40;;;2.50;;
4726;SDS011;2377;51.734;8.950;2023-03-31T06:34:19;8.53;;;2.97;;
4726;SDS011;2377;51.734;8.950;2023-03-31T06:36:48;5.07;;;2.20;;
4726;SDS011;2377;51.734;8.950;2023-03-31T06:39:15;4.80;;;2.20;;
4726;SDS011;2377;51.734;8.950;2023-03-31T06:41:42;5.03;;;2.23;;
4726;SDS011;2377;51.734;8.950;2023-03-31T06:44:09;5.10;;;2.20;;
4726;SDS011;2377;51.734;8.950;2023-03-31T06:46:36;6.43;;;2.50;;
4726;SDS011;2377;51.734;8.950;2023-03-31T06:49:03;8.10;;;2.80;;
4726;SDS011;2377;51.734;8.950;2023-03-31T06:51:30;6.70;;;2.80;;
4726;SDS011;2377;51.734;8.950;2023-03-31T06:53:58;5.10;;;2.30;;
4726;SDS011;2377;51.734;8.950;2023-03-31T06:56:25;6.40;;;2.83;;
4726;SDS011;2377;51.734;8.950;2023-03-31T06:58:52;5.90;;;2.43;;
4726;SDS011;2377;51.734;8.950;2023-03-31T07:01:19;6.10;;;2.50;;
4726;SDS011;2377;51.734;8.950;2023-03-31T07:03:46;7.83;;;2.40;;
4726;SDS011;2377;51.734;8.950;2023-03-31T07:06:13;5.13;;;1.90;;
4726;SDS011;2377;51.734;8.950;2023-03-31T07:08:41;9.00;;;2.27;;
4726;SDS011;2377;51.734;8.950;2023-03-31T07:11:09;3.70;;;1.93;;
4726;SDS011;2377;51.734;8.950;2023-03-31T07:13:36;4.53;;;1.90;;
4726;SDS011;2377;51.734;8.950;2023-03-31T07:16:03;7.60;;;2.03;;
4726;SDS011;2377;51.734;8.950;2023-03-31T07:18:31;6.93;;;2.23;;
4726;SDS011;2377;51.734;8.950;2023-03-31T07:20:59;9.10;;;1.87;;
4726;SDS011;2377;51.734;8.950;2023-03-31T07:23:26;5.17;;;1.70;;
4726;SDS011;2377;51.734;8.950;2023-03-31T07:25:53;3.50;;;1.87;;
4726;SDS011;2377;51.734;8.950;2023-03-31T07:28:21;3.40;;;1.40;;
4726;SDS011;2377;51.734;8.950;2023-03-31T07:30:48;5.97;;;1.93;;
4726;SDS011;2377;51.734;8.950;2023-03-31T07:33:15;5.40;;;1.90;;
4726;SDS011;2377;51.734;8.950;2023-03-31T07:35:42;6.80;;;1.60;;
4726;SDS011;2377;51.734;8.950;2023-03-31T07:38:09;2.73;;;1.40;;
4726;SDS011;2377;51.734;8.950;2023-03-31T07:40:38;7.77;;;1.90;;
4726;SDS011;2377;51.734;8.950;2023-03-31T07:43:06;3.60;;;1.60;;
4726;SDS011;2377;51.734;8.950;2023-03-31T07:45:35;4.30;;;1.60;;
4726;SDS011;2377;51.734;8.950;2023-03-31T07:48:05;3.73;;;1.40;;
4726;SDS011;2377;51.734;8.950;2023-03-31T07:50:32;6.20;;;1.90;;
4726;SDS011;2377;51.734;8.950;2023-03-31T07:53:02;5.33;;;1.63;;
4726;SDS011;2377;51.734;8.950;2023-03-31T07:55:30;4.60;;;1.90;;
4726;SDS011;2377;51.734;8.950;2023-03-31T07:57:57;5.00;;;1.83;;
4726;SDS011;2377;51.734;8.950;2023-03-31T08:00:25;5.77;;;1.47;;
4726;SDS011;2377;51.734;8.950;2023-03-31T08:02:54;5.13;;;1.80;;
4726;SDS011;2377;51.734;8.950;2023-03-31T08:05:21;6.53;;;1.80;;
4726;SDS011;2377;51.734;8.950;2023-03-31T08:07:49;4.40;;;1.60;;
4726;SDS011;2377;51.734;8.950;2023-03-31T08:10:17;2.83;;;1.40;;
4726;SDS011;2377;51.734;8.950;2023-03-31T08:12:48;5.17;;;1.63;;
4726;SDS011;2377;51.734;8.950;2023-03-31T08:15:16;3.47;;;1.53;;
4726;SDS011;2377;51.734;8.950;2023-03-31T08:17:43;6.97;;;2.33;;
4726;SDS011;2377;51.734;8.950;2023-03-31T08:20:12;3.77;;;1.83;;
4726;SDS011;2377;51.734;8.950;2023-03-31T08:22:39;4.63;;;1.40;;
4726;SDS011;2377;51.734;8.950;2023-03-31T08:25:07;5.63;;;1.67;;
4726;SDS011;2377;51.734;8.950;2023-03-31T08:27:35;3.93;;;1.43;;
4726;SDS011;2377;51.734;8.950;2023-03-31T08:30:05;4.40;;;1.93;;
4726;SDS011;2377;51.734;8.950;2023-03-31T08:32:35;4.47;;;1.80;;
4726;SDS011;2377;51.734;8.950;2023-03-31T08:35:03;7.40;;;1.80;;
4726;SDS011;2377;51.734;8.950;2023-03-31T08:37:32;4.63;;;1.60;;
4726;SDS011;2377;51.734;8.950;2023-03-31T08:39:59;5.07;;;2.03;;
4726;SDS011;2377;51.734;8.950;2023-03-31T08:42:32;4.77;;;1.87;;
4726;SDS011;2377;51.734;8.950;2023-03-31T08:45:04;5.50;;;1.97;;
4726;SDS011;2377;51.734;8.950;2023-03-31T08:47:38;6.63;;;3.20;;
4726;SDS011;2377;51.734;8.950;2023-03-31T08:50:10;8.13;;;4.13;;
4726;SDS011;2377;51.734;8.950;2023-03-31T08:52:44;4.90;;;3.37;;
4726;SDS011;2377;51.734;8.950;2023-03-31T08:55:19;12.03;;;2.40;;
4726;SDS011;2377;51.734;8.950;2023-03-31T08:57:57;4.30;;;1.97;;
4726;SDS011;2377;51.734;8.950;2023-03-31T09:00:36;7.53;;;1.90;;
4726;SDS011;2377;51.734;8.950;2023-03-31T09:03:16;4.33;;;1.70;;
4726;SDS011;2377;51.734;8.950;2023-03-31T09:05:53;2.60;;;1.30;;
4726;SDS011;2377;51.734;8.950;2023-03-31T09:08:32;3.80;;;1.80;;
4726;SDS011;2377;51.734;8.950;2023-03-31T09:11:07;3.53;;;1.40;;
4726;SDS011;2377;51.734;8.950;2023-03-31T09:16:47;2.87;;;1.30;;
4726;SDS011;2377;51.734;8.950;2023-03-31T09:19:31;3.60;;;1.30;;
4726;SDS011;2377;51.734;8.950;2023-03-31T09:22:04;5.17;;;1.23;;
4726;SDS011;2377;51.734;8.950;2023-03-31T09:24:45;4.50;;;1.40;;
4726;SDS011;2377;51.734;8.950;2023-03-31T09:27:17;3.00;;;1.20;;
4726;SDS011;2377;51.734;8.950;2023-03-31T09:29:47;3.03;;;1.23;;
4726;SDS011;2377;51.734;8.950;2023-03-31T09:32:20;3.60;;;1.20;;
4726;SDS011;2377;51.734;8.950;2023-03-31T09:34:51;5.00;;;1.30;;
4726;SDS011;2377;51.734;8.950;2023-03-31T09:37:26;3.70;;;1.43;;
4726;SDS011;2377;51.734;8.950;2023-03-31T09:39:58;4.10;;;1.30;;
4726;SDS011;2377;51.734;8.950;2023-03-31T09:42:31;3.60;;;1.50;;
4726;SDS011;2377;51.734;8.950;2023-03-31T09:44:59;3.00;;;1.40;;
4726;SDS011;2377;51.734;8.950;2023-03-31T09:47:28;3.63;;;1.17;;
4726;SDS011;2377;51.734;8.950;2023-03-31T09:50:03;3.80;;;1.30;;
4726;SDS011;2377;51.734;8.950;2023-03-31T09:52:32;3.80;;;1.10;;
4726;SDS011;2377;51.734;8.950;2023-03-31T09:55:05;2.60;;;1.27;;
4726;SDS011;2377;51.734;8.950;2023-03-31T09:57:45;2.50;;;1.30;;
4726;SDS011;2377;51.734;8.950;2023-03-31T10:00:14;3.07;;;1.43;;
4726;SDS011;2377;51.734;8.950;2023-03-31T10:02:46;5.77;;;1.27;;
4726;SDS011;2377;51.734;8.950;2023-03-31T10:05:26;3.97;;;1.40;;
4726;SDS011;2377;51.734;8.950;2023-03-31T10:08:12;3.90;;;1.60;;
4726;SDS011;2377;51.734;8.950;2023-03-31T10:10:50;3.03;;;1.60;;
4726;SDS011;2377;51.734;8.950;2023-03-31T10:13:22;3.20;;;1.60;;
4726;SDS011;2377;51.734;8.950;2023-03-31T10:15:51;4.20;;;1.50;;
4726;SDS011;2377;51.734;8.950;2023-03-31T10:18:20;5.53;;;1.70;;
4726;SDS011;2377;51.734;8.950;2023-03-31T10:21:02;6.50;;;1.70;;
4726;SDS011;2377;51.734;8.950;2023-03-31T10:23:32;3.30;;;1.43;;
4726;SDS011;2377;51.734;8.950;2023-03-31T10:26:02;4.43;;;1.80;;
4726;SDS011;2377;51.734;8.950;2023-03-31T10:28:31;4.33;;;1.67;;
4726;SDS011;2377;51.734;8.950;2023-03-31T10:31:01;2.63;;;1.53;;
4726;SDS011;2377;51.734;8.950;2023-03-31T10:33:29;4.63;;;2.33;;
4726;SDS011;2377;51.734;8.950;2023-03-31T10:36:00;4.87;;;2.20;;
4726;SDS011;2377;51.734;8.950;2023-03-31T10:38:33;6.50;;;2.10;;
4726;SDS011;2377;51.734;8.950;2023-03-31T10:41:07;5.37;;;1.93;;
4726;SDS011;2377;51.734;8.950;2023-03-31T10:43:36;6.97;;;2.00;;
4726;SDS011;2377;51.734;8.950;2023-03-31T10:46:06;4.07;;;1.67;;
4726;SDS011;2377;51.734;8.950;2023-03-31T10:48:35;5.67;;;2.07;;
4726;SDS011;2377;51.734;8.950;2023-03-31T10:51:14;4.70;;;1.50;;
4726;SDS011;2377;51.734;8.950;2023-03-31T10:53:44;6.47;;;1.97;;
4726;SDS011;2377;51.734;8.950;2023-03-31T10:56:21;13.53;;;2.03;;
4726;SDS011;2377;51.734;8.950;2023-03-31T11:02:12;5.37;;;1.90;;
4726;SDS011;2377;51.734;8.950;2023-03-31T11:05:03;7.70;;;2.40;;
4726;SDS011;2377;51.734;8.950;2023-03-31T11:07:42;7.27;;;2.20;;
4726;SDS011;2377;51.734;8.950;2023-03-31T11:10:28;7.03;;;1.90;;
4726;SDS011;2377;51.734;8.950;2023-03-31T11:13:19;6.70;;;1.90;;
4726;SDS011;2377;51.734;8.950;2023-03-31T11:15:57;5.73;;;2.00;;
4726;SDS011;2377;51.734;8.950;2023-03-31T11:18:43;7.17;;;1.90;;
4726;SDS011;2377;51.734;8.950;2023-03-31T11:21:29;6.63;;;2.03;;
4726;SDS011;2377;51.734;8.950;2023-03-31T11:24:14;4.37;;;1.60;;
4726;SDS011;2377;51.734;8.950;2023-03-31T11:26:57;4.83;;;1.87;;
4726;SDS011;2377;51.734;8.950;2023-03-31T11:29:41;5.27;;;1.70;;
4726;SDS011;2377;51.734;8.950;2023-03-31T11:32:25;4.83;;;1.50;;
4726;SDS011;2377;51.734;8.950;2023-03-31T11:35:12;7.23;;;2.07;;
4726;SDS011;2377;51.734;8.950;2023-03-31T11:38:05;7.47;;;2.53;;
4726;SDS011;2377;51.734;8.950;2023-03-31T11:40:57;6.73;;;1.97;;
4726;SDS011;2377;51.734;8.950;2023-03-31T11:43:29;5.27;;;1.90;;
4726;SDS011;2377;51.734;8.950;2023-03-31T11:46:08;6.53;;;2.47;;
4726;SDS011;2377;51.734;8.950;2023-03-31T11:48:43;8.33;;;2.13;;
4726;SDS011;2377;51.734;8.950;2023-03-31T11:51:18;12.23;;;2.50;;
4726;SDS011;2377;51.734;8.950;2023-03-31T11:53:52;8.63;;;2.50;;
4726;SDS011;2377;51.734;8.950;2023-03-31T11:56:23;6.60;;;2.40;;
4726;SDS011;2377;51.734;8.950;2023-03-31T11:58:58;9.83;;;2.70;;
4726;SDS011;2377;51.734;8.950;2023-03-31T12:01:29;7.03;;;2.20;;
4726;SDS011;2377;51.734;8.950;2023-03-31T12:04:11;7.10;;;2.47;;
4726;SDS011;2377;51.734;8.950;2023-03-31T12:06:54;5.93;;;2.43;;
4726;SDS011;2377;51.734;8.950;2023-03-31T12:09:31;7.30;;;2.50;;
4726;SDS011;2377;51.734;8.950;2023-03-31T12:12:09;9.80;;;2.53;;
4726;SDS011;2377;51.734;8.950;2023-03-31T12:14:46;6.80;;;2.40;;
4726;SDS011;2377;51.734;8.950;2023-03-31T12:17:20;10.70;;;2.30;;
4726;SDS011;2377;51.734;8.950;2023-03-31T12:19:53;8.50;;;3.17;;
4726;SDS011;2377;51.734;8.950;2023-03-31T12:22:26;9.87;;;3.33;;
4726;SDS011;2377;51.734;8.950;2023-03-31T12:24:58;9.10;;;2.77;;
4726;SDS011;2377;51.734;8.950;2023-03-31T12:27:26;6.73;;;3.17;;
4726;SDS011;2377;51.734;8.950;2023-03-31T12:30:05;8.10;;;2.93;;
4726;SDS011;2377;51.734;8.950;2023-03-31T12:32:41;5.43;;;2.30;;
4726;SDS011;2377;51.734;8.950;2023-03-31T12:35:18;8.83;;;3.37;;
4726;SDS011;2377;51.734;8.950;2023-03-31T12:37:56;12.63;;;4.20;;
4726;SDS011;2377;51.734;8.950;2023-03-31T12:40:55;13.30;;;3.90;;
4726;SDS011;2377;51.734;8.950;2023-03-31T12:46:46;8.00;;;2.10;;
4726;SDS011;2377;51.734;8.950;2023-03-31T12:49:42;5.93;;;1.67;;
4726;SDS011;2377;51.734;8.950;2023-03-31T12:52:46;4.23;;;1.93;;
4726;SDS011;2377;51.734;8.950;2023-03-31T12:55:30;8.87;;;1.87;;
4726;SDS011;2377;51.734;8.950;2023-03-31T13:01:14;4.23;;;1.40;;
4726;SDS011;2377;51.734;8.950;2023-03-31T13:03:47;2.83;;;1.30;;
4726;SDS011;2377;51.734;8.950;2023-03-31T13:12:17;4.43;;;1.30;;
4726;SDS011;2377;51.734;8.950;2023-03-31T13:14:48;3.57;;;1.40;;
4726;SDS011;2377;51.734;8.950;2023-03-31T13:17:20;4.07;;;1.50;;
4726;SDS011;2377;51.734;8.950;2023-03-31T13:19:51;8.63;;;1.50;;
4726;SDS011;2377;51.734;8.950;2023-03-31T13:22:45;3.20;;;1.20;;
4726;SDS011;2377;51.734;8.950;2023-03-31T13:25:30;5.57;;;1.70;;
4726;SDS011;2377;51.734;8.950;2023-03-31T13:28:26;6.83;;;1.77;;
4726;SDS011;2377;51.734;8.950;2023-03-31T13:31:06;4.30;;;1.10;;
4726;SDS011;2377;51.734;8.950;2023-03-31T13:36:42;4.20;;;1.20;;
4726;SDS011;2377;51.734;8.950;2023-03-31T13:39:41;2.07;;;1.00;;
4726;SDS011;2377;51.734;8.950;2023-03-31T13:52:20;4.50;;;1.00;;
4726;SDS011;2377;51.734;8.950;2023-03-31T13:55:10;4.23;;;2.50;;
4726;SDS011;2377;51.734;8.950;2023-03-31T13:58:19;3.30;;;1.97;;
4726;SDS011;2377;51.734;8.950;2023-03-31T14:01:30;2.53;;;1.23;;
4726;SDS011;2377;51.734;8.950;2023-03-31T14:04:34;1.87;;;1.20;;
4726;SDS011;2377;51.734;8.950;2023-03-31T14:07:26;3.60;;;1.63;;
4726;SDS011;2377;51.734;8.950;2023-03-31T14:09:59;17.50;;;4.20;;
4726;SDS011;2377;51.734;8.950;2023-03-31T14:12:31;6.70;;;3.93;;
4726;SDS011;2377;51.734;8.950;2023-03-31T14:15:00;5.20;;;2.00;;
4726;SDS011;2377;51.734;8.950;2023-03-31T14:17:29;2.50;;;1.07;;
4726;SDS011;2377;51.734;8.950;2023-03-31T14:20:05;4.30;;;1.10;;
4726;SDS011;2377;51.734;8.950;2023-03-31T14:22:50;3.70;;;1.10;;
4726;SDS011;2377;51.734;8.950;2023-03-31T14:25:34;2.50;;;0.93;;
4726;SDS011;2377;51.734;8.950;2023-03-31T14:28:18;1.83;;;0.90;;
4726;SDS011;2377;51.734;8.950;2023-03-31T14:31:11;5.00;;;1.20;;
4726;SDS011;2377;51.734;8.950;2023-03-31T14:33:50;3.37;;;1.20;;
4726;SDS011;2377;51.734;8.950;2023-03-31T14:36:43;5.97;;;1.13;;
4726;SDS011;2377;51.734;8.950;2023-03-31T14:39:23;5.10;;;1.30;;
4726;SDS011;2377;51.734;8.950;2023-03-31T14:41:55;5.57;;;1.27;;
4726;SDS011;2377;51.734;8.950;2023-03-31T14:44:29;3.50;;;1.23;;
4726;SDS011;2377;51.734;8.950;2023-03-31T14:46:56;5.10;;;1.50;;
4726;SDS011;2377;51.734;8.950;2023-03-31T14:49:24;2.80;;;1.20;;
4726;SDS011;2377;51.734;8.950;2023-03-31T14:51:54;4.03;;;1.10;;
4726;SDS011;2377;51.734;8.950;2023-03-31T14:54:27;5.03;;;1.50;;
4726;SDS011;2377;51.734;8.950;2023-03-31T14:57:01;2.50;;;1.30;;
4726;SDS011;2377;51.734;8.950;2023-03-31T14:59:32;3.63;;;1.60;;
4726;SDS011;2377;51.734;8.950;2023-03-31T15:02:02;5.03;;;1.50;;
4726;SDS011;2377;51.734;8.950;2023-03-31T15:04:39;5.43;;;2.13;;
4726;SDS011;2377;51.734;8.950;2023-03-31T15:07:12;5.27;;;1.57;;
4726;SDS011;2377;51.734;8.950;2023-03-31T15:09:42;3.83;;;1.30;;
4726;SDS011;2377;51.734;8.950;2023-03-31T15:12:14;3.27;;;1.27;;
4726;SDS011;2377;51.734;8.950;2023-03-31T15:14:48;4.93;;;1.30;;
4726;SDS011;2377;51.734;8.950;2023-03-31T15:17:20;5.93;;;2.03;;
4726;SDS011;2377;51.734;8.950;2023-03-31T15:19:51;5.77;;;1.67;;
4726;SDS011;2377;51.734;8.950;2023-03-31T15:22:24;4.13;;;1.50;;
4726;SDS011;2377;51.734;8.950;2023-03-31T15:24:53;3.70;;;1.70;;
4726;SDS011;2377;51.734;8.950;2023-03-31T15:27:24;4.80;;;1.50;;
4726;SDS011;2377;51.734;8.950;2023-03-31T15:30:01;6.57;;;1.70;;
4726;SDS011;2377;51.734;8.950;2023-03-31T15:32:33;4.83;;;1.50;;
4726;SDS011;2377;51.734;8.950;2023-03-31T15:35:03;5.70;;;1.90;;
4726;SDS011;2377;51.734;8.950;2023-03-31T15:37:36;7.17;;;1.73;;
4726;SDS011;2377;51.734;8.950;2023-03-31T15:40:09;5.77;;;2.10;;
4726;SDS011;2377;51.734;8.950;2023-03-31T15:42:46;8.63;;;2.33;;
4726;SDS011;2377;51.734;8.950;2023-03-31T15:45:34;5.47;;;1.87;;
4726;SDS011;2377;51.734;8.950;2023-03-31T15:48:13;3.87;;;1.70;;
4726;SDS011;2377;51.734;8.950;2023-03-31T15:50:46;3.10;;;1.30;;
4726;SDS011;2377;51.734;8.950;2023-03-31T15:53:21;6.70;;;1.80;;
4726;SDS011;2377;51.734;8.950;2023-03-31T15:56:00;5.90;;;1.80;;
4726;SDS011;2377;51.734;8.950;2023-03-31T15:58:45;5.70;;;1.87;;
4726;SDS011;2377;51.734;8.950;2023-03-31T16:01:21;4.23;;;1.57;;
4726;SDS011;2377;51.734;8.950;2023-03-31T16:03:54;6.40;;;2.17;;
4726;SDS011;2377;51.734;8.950;2023-03-31T16:06:23;5.17;;;1.63;;
4726;SDS011;2377;51.734;8.950;2023-03-31T16:09:11;7.30;;;2.00;;
4726;SDS011;2377;51.734;8.950;2023-03-31T16:11:45;12.10;;;1.73;;
4726;SDS011;2377;51.734;8.950;2023-03-31T16:14:18;6.20;;;1.70;;
4726;SDS011;2377;51.734;8.950;2023-03-31T16:16:53;4.37;;;1.57;;
4726;SDS011;2377;51.734;8.950;2023-03-31T16:19:25;8.03;;;1.80;;
4726;SDS011;2377;51.734;8.950;2023-03-31T16:22:03;5.10;;;1.57;;
4726;SDS011;2377;51.734;8.950;2023-03-31T16:24:31;6.53;;;1.73;;
4726;SDS011;2377;51.734;8.950;2023-03-31T16:27:01;6.37;;;2.23;;
4726;SDS011;2377;51.734;8.950;2023-03-31T16:29:32;4.90;;;1.33;;
4726;SDS011;2377;51.734;8.950;2023-03-31T16:32:07;5.30;;;1.50;;
4726;SDS011;2377;51.734;8.950;2023-03-31T16:34:50;5.70;;;1.40;;